sensor_id;sensor_type;location;lat;lon;timestamp;pressure;altitude;pressure_sealevel;temperature;humidity
70546;BME280;58098;51.680;5.134;2023-07-20T00:01:30;101510.25;;;16.66;100.00
70546;BME280;58098;51.680;5.134;2023-07-20T00:03:55;101516.81;;;16.42;100.00
70546;BME280;58098;51.680;5.134;2023-07-20T00:06:25;101539.09;;;16.48;100.00
70546;BME280;58098;51.680;5.134;2023-07-20T00:08:55;101542.88;;;16.26;100.00
70546;BME280;58098;51.680;5.134;2023-07-20T00:11:25;101527.09;;;16.17;100.00
70546;BME280;58098;51.680;5.134;2023-07-20T00:13:50;101520.47;;;16.03;100.00
70546;BME280;58098;51.680;5.134;2023-07-20T00:16:16;101526.53;;;15.94;100.00
70546;BME280;58098;51.680;5.134;2023-07-20T00:18:41;101543.19;;;15.95;100.00
70546;BME280;58098;51.680;5.134;2023-07-20T00:21:06;101536.69;;;15.89;100.00
70546;BME280;58098;51.680;5.134;2023-07-20T00:23:32;101530.44;;;15.80;100.00
70546;BME280;58098;51.680;5.134;2023-07-20T00:25:57;101528.06;;;15.77;100.00
70546;BME280;58098;51.680;5.134;2023-07-20T00:28:22;101516.69;;;15.67;100.00
70546;BME280;58098;51.680;5.134;2023-07-20T00:30:47;101528.31;;;15.65;100.00
70546;BME280;58098;51.680;5.134;2023-07-20T00:33:16;101528.31;;;15.65;100.00
70546;BME280;58098;51.680;5.134;2023-07-20T00:35:42;101525.69;;;15.55;100.00
70546;BME280;58098;51.680;5.134;2023-07-20T00:38:07;101523.78;;;15.57;100.00
70546;BME280;58098;51.680;5.134;2023-07-20T00:40:39;101547.84;;;15.62;100.00
70546;BME280;58098;51.680;5.134;2023-07-20T00:43:06;101536.22;;;15.55;100.00
70546;BME280;58098;51.680;5.134;2023-07-20T00:45:32;101541.91;;;15.60;100.00
70546;BME280;58098;51.680;5.134;2023-07-20T00:47:58;101541.47;;;15.55;100.00
70546;BME280;58098;51.680;5.134;2023-07-20T00:50:25;101543.16;;;15.56;100.00
70546;BME280;58098;51.680;5.134;2023-07-20T00:52:51;101546.88;;;15.54;100.00
70546;BME280;58098;51.680;5.134;2023-07-20T00:55:18;101542.88;;;15.50;100.00
70546;BME280;58098;51.680;5.134;2023-07-20T00:57:44;101545.34;;;15.51;100.00
70546;BME280;58098;51.680;5.134;2023-07-20T01:00:10;101540.88;;;15.42;100.00
70546;BME280;58098;51.680;5.134;2023-07-20T01:02:35;101554.50;;;15.47;100.00
70546;BME280;58098;51.680;5.134;2023-07-20T01:05:02;101536.97;;;15.37;100.00
70546;BME280;58098;51.680;5.134;2023-07-20T01:07:34;101550.19;;;15.46;100.00
70546;BME280;58098;51.680;5.134;2023-07-20T01:10:12;101550.56;;;15.42;100.00
70546;BME280;58098;51.680;5.134;2023-07-20T01:12:43;101541.28;;;15.38;100.00
70546;BME280;58098;51.680;5.134;2023-07-20T01:15:12;101548.53;;;15.45;100.00
70546;BME280;58098;51.680;5.134;2023-07-20T01:17:37;101541.97;;;15.40;100.00
70546;BME280;58098;51.680;5.134;2023-07-20T01:20:03;101537.25;;;15.34;100.00
70546;BME280;58098;51.680;5.134;2023-07-20T01:30:50;101538.06;;;15.34;100.00
70546;BME280;58098;51.680;5.134;2023-07-20T01:33:19;101552.50;;;15.40;100.00
70546;BME280;58098;51.680;5.134;2023-07-20T01:35:47;101549.44;;;15.35;100.00
70546;BME280;58098;51.680;5.134;2023-07-20T01:38:13;101530.31;;;15.23;100.00
70546;BME280;58098;51.680;5.134;2023-07-20T01:40:40;101529.72;;;15.19;100.00
70546;BME280;58098;51.680;5.134;2023-07-20T01:43:06;101546.91;;;15.23;100.00
70546;BME280;58098;51.680;5.134;2023-07-20T01:45:31;101542.19;;;15.17;100.00
70546;BME280;58098;51.680;5.134;2023-07-20T01:47:56;101551.06;;;15.26;100.00
70546;BME280;58098;51.680;5.134;2023-07-20T01:50:22;101558.00;;;15.27;100.00
70546;BME280;58098;51.680;5.134;2023-07-20T01:52:47;101555.50;;;15.26;100.00
70546;BME280;58098;51.680;5.134;2023-07-20T01:55:13;101553.00;;;15.24;100.00
70546;BME280;58098;51.680;5.134;2023-07-20T01:57:38;101539.81;;;15.14;100.00
70546;BME280;58098;51.680;5.134;2023-07-20T02:00:04;101554.63;;;15.15;100.00
70546;BME280;58098;51.680;5.134;2023-07-20T02:02:30;101544.38;;;15.12;100.00
70546;BME280;58098;51.680;5.134;2023-07-20T02:04:55;101554.91;;;15.12;100.00
70546;BME280;58098;51.680;5.134;2023-07-20T02:07:21;101558.47;;;15.11;100.00
70546;BME280;58098;51.680;5.134;2023-07-20T02:09:46;101547.81;;;15.03;100.00
70546;BME280;58098;51.680;5.134;2023-07-20T02:12:12;101557.53;;;15.12;100.00
70546;BME280;58098;51.680;5.134;2023-07-20T02:14:37;101558.09;;;15.16;100.00
70546;BME280;58098;51.680;5.134;2023-07-20T02:17:03;101552.84;;;15.16;100.00
70546;BME280;58098;51.680;5.134;2023-07-20T02:19:30;101570.16;;;15.18;100.00
70546;BME280;58098;51.680;5.134;2023-07-20T02:21:56;101564.91;;;15.18;100.00
70546;BME280;58098;51.680;5.134;2023-07-20T02:24:21;101565.00;;;15.17;100.00
70546;BME280;58098;51.680;5.134;2023-07-20T02:26:46;101537.13;;;14.95;100.00
70546;BME280;58098;51.680;5.134;2023-07-20T02:29:12;101554.28;;;14.99;100.00
70546;BME280;58098;51.680;5.134;2023-07-20T02:31:37;101564.09;;;14.97;100.00
70546;BME280;58098;51.680;5.134;2023-07-20T02:34:07;101565.84;;;14.87;100.00
70546;BME280;58098;51.680;5.134;2023-07-20T02:36:34;101575.78;;;14.84;100.00
70546;BME280;58098;51.680;5.134;2023-07-20T02:38:59;101581.94;;;14.73;100.00
70546;BME280;58098;51.680;5.134;2023-07-20T02:41:25;101576.50;;;14.65;100.00
70546;BME280;58098;51.680;5.134;2023-07-20T02:43:50;101560.63;;;14.46;100.00
70546;BME280;58098;51.680;5.134;2023-07-20T02:46:16;101578.97;;;14.57;100.00
70546;BME280;58098;51.680;5.134;2023-07-20T02:48:41;101576.97;;;14.49;100.00
70546;BME280;58098;51.680;5.134;2023-07-20T02:51:06;101586.63;;;14.49;100.00
70546;BME280;58098;51.680;5.134;2023-07-20T02:53:33;101571.66;;;14.40;100.00
70546;BME280;58098;51.680;5.134;2023-07-20T02:55:58;101587.16;;;14.43;100.00
70546;BME280;58098;51.680;5.134;2023-07-20T02:58:24;101584.78;;;14.40;100.00
70546;BME280;58098;51.680;5.134;2023-07-20T03:00:49;101586.72;;;14.38;100.00
70546;BME280;58098;51.680;5.134;2023-07-20T03:03:14;101585.56;;;14.31;100.00
70546;BME280;58098;51.680;5.134;2023-07-20T03:05:41;101576.91;;;14.29;100.00
70546;BME280;58098;51.680;5.134;2023-07-20T03:08:07;101592.22;;;14.24;100.00
70546;BME280;58098;51.680;5.134;2023-07-20T03:10:32;101594.03;;;14.23;100.00
70546;BME280;58098;51.680;5.134;2023-07-20T03:12:58;101599.38;;;14.22;100.00
70546;BME280;58098;51.680;5.134;2023-07-20T03:15:24;101606.78;;;14.17;100.00
70546;BME280;58098;51.680;5.134;2023-07-20T03:17:49;101606.09;;;14.15;100.00
70546;BME280;58098;51.680;5.134;2023-07-20T03:20:15;101612.44;;;14.12;100.00
70546;BME280;58098;51.680;5.134;2023-07-20T03:22:40;101611.13;;;14.07;100.00
70546;BME280;58098;51.680;5.134;2023-07-20T03:25:06;101611.03;;;14.08;100.00
70546;BME280;58098;51.680;5.134;2023-07-20T03:27:32;101613.03;;;14.05;100.00
70546;BME280;58098;51.680;5.134;2023-07-20T03:29:57;101604.00;;;13.98;100.00
70546;BME280;58098;51.680;5.134;2023-07-20T03:32:22;101619.28;;;14.04;100.00
70546;BME280;58098;51.680;5.134;2023-07-20T03:34:48;101603.53;;;13.93;100.00
70546;BME280;58098;51.680;5.134;2023-07-20T03:37:13;101616.28;;;13.97;100.00
70546;BME280;58098;51.680;5.134;2023-07-20T03:39:38;101606.53;;;13.88;100.00
70546;BME280;58098;51.680;5.134;2023-07-20T03:42:04;101622.28;;;13.99;100.00
70546;BME280;58098;51.680;5.134;2023-07-20T03:44:30;101611.78;;;13.88;100.00
70546;BME280;58098;51.680;5.134;2023-07-20T03:46:56;101623.59;;;13.94;100.00
70546;BME280;58098;51.680;5.134;2023-07-20T03:49:21;101617.88;;;13.88;100.00
70546;BME280;58098;51.680;5.134;2023-07-20T03:51:46;101621.06;;;13.92;100.00
70546;BME280;58098;51.680;5.134;2023-07-20T03:54:12;101621.19;;;13.90;100.00
70546;BME280;58098;51.680;5.134;2023-07-20T03:56:37;101625.38;;;13.93;100.00
70546;BME280;58098;51.680;5.134;2023-07-20T03:59:02;101619.28;;;13.93;100.00
70546;BME280;58098;51.680;5.134;2023-07-20T04:01:28;101625.50;;;13.92;100.00
70546;BME280;58098;51.680;5.134;2023-07-20T04:03:53;101630.75;;;13.92;100.00
70546;BME280;58098;51.680;5.134;2023-07-20T04:06:18;101624.53;;;13.93;100.00
70546;BME280;58098;51.680;5.134;2023-07-20T04:08:44;101611.69;;;13.89;100.00
70546;BME280;58098;51.680;5.134;2023-07-20T04:11:12;101630.06;;;13.89;100.00
70546;BME280;58098;51.680;5.134;2023-07-20T04:13:37;101626.69;;;13.87;100.00
70546;BME280;58098;51.680;5.134;2023-07-20T04:16:03;101618.81;;;13.87;100.00
70546;BME280;58098;51.680;5.134;2023-07-20T04:18:28;101616.69;;;13.81;100.00
70546;BME280;58098;51.680;5.134;2023-07-20T04:20:53;101625.59;;;13.90;100.00
70546;BME280;58098;51.680;5.134;2023-07-20T04:23:19;101623.50;;;13.84;100.00
70546;BME280;58098;51.680;5.134;2023-07-20T04:25:44;101605.38;;;13.81;100.00
70546;BME280;58098;51.680;5.134;2023-07-20T04:28:09;101611.56;;;13.80;100.00
70546;BME280;58098;51.680;5.134;2023-07-20T04:30:35;101616.00;;;13.79;100.00
70546;BME280;58098;51.680;5.134;2023-07-20T04:33:02;101614.19;;;13.80;100.00
70546;BME280;58098;51.680;5.134;2023-07-20T04:35:53;101619.28;;;13.93;100.00
70546;BME280;58098;51.680;5.134;2023-07-20T04:38:19;101620.50;;;13.88;100.00
70546;BME280;58098;51.680;5.134;2023-07-20T04:40:45;101627.16;;;13.93;100.00
70546;BME280;58098;51.680;5.134;2023-07-20T04:43:11;101614.31;;;13.89;100.00
70546;BME280;58098;51.680;5.134;2023-07-20T04:45:37;101620.00;;;13.95;100.00
70546;BME280;58098;51.680;5.134;2023-07-20T04:48:02;101620.44;;;14.00;100.00
70546;BME280;58098;51.680;5.134;2023-07-20T04:50:27;101618.19;;;13.95;100.00
70546;BME280;58098;51.680;5.134;2023-07-20T04:52:53;101628.78;;;14.05;100.00
70546;BME280;58098;51.680;5.134;2023-07-20T04:55:18;101610.41;;;14.05;100.00
70546;BME280;58098;51.680;5.134;2023-07-20T04:57:44;101606.16;;;14.04;100.00
70546;BME280;58098;51.680;5.134;2023-07-20T05:00:10;101602.53;;;14.05;100.00
70546;BME280;58098;51.680;5.134;2023-07-20T05:02:36;101615.66;;;14.16;100.00
70546;BME280;58098;51.680;5.134;2023-07-20T05:05:03;101621.34;;;14.21;100.00
70546;BME280;58098;51.680;5.134;2023-07-20T05:07:31;101617.75;;;14.22;100.00
70546;BME280;58098;51.680;5.134;2023-07-20T05:09:56;101620.28;;;14.23;100.00
70546;BME280;58098;51.680;5.134;2023-07-20T05:12:21;101607.97;;;14.24;100.00
70546;BME280;58098;51.680;5.134;2023-07-20T05:14:47;101625.63;;;14.33;100.00
70546;BME280;58098;51.680;5.134;2023-07-20T05:17:12;101615.94;;;14.33;100.00
70546;BME280;58098;51.680;5.134;2023-07-20T05:19:37;101610.59;;;14.35;100.00
70546;BME280;58098;51.680;5.134;2023-07-20T05:22:03;101606.75;;;14.39;100.00
70546;BME280;58098;51.680;5.134;2023-07-20T05:24:29;101618.41;;;14.46;100.00
70546;BME280;58098;51.680;5.134;2023-07-20T05:26:54;101620.00;;;14.58;100.00
70546;BME280;58098;51.680;5.134;2023-07-20T05:29:20;101627.41;;;14.64;100.00
70546;BME280;58098;51.680;5.134;2023-07-20T05:31:45;101624.75;;;14.64;100.00
70546;BME280;58098;51.680;5.134;2023-07-20T05:34:10;101618.13;;;14.60;100.00
70546;BME280;58098;51.680;5.134;2023-07-20T05:36:36;101623.53;;;14.68;100.00
70546;BME280;58098;51.680;5.134;2023-07-20T05:39:02;101635.09;;;14.77;100.00
70546;BME280;58098;51.680;5.134;2023-07-20T05:41:27;101626.75;;;14.72;100.00
70546;BME280;58098;51.680;5.134;2023-07-20T05:43:52;101626.13;;;14.79;100.00
70546;BME280;58098;51.680;5.134;2023-07-20T05:46:18;101645.66;;;14.86;100.00
70546;BME280;58098;51.680;5.134;2023-07-20T05:48:43;101628.22;;;14.85;100.00
70546;BME280;58098;51.680;5.134;2023-07-20T05:51:08;101622.00;;;14.86;100.00
70546;BME280;58098;51.680;5.134;2023-07-20T05:53:35;101617.59;;;14.87;100.00
70546;BME280;58098;51.680;5.134;2023-07-20T05:56:00;101639.53;;;15.06;100.00
70546;BME280;58098;51.680;5.134;2023-07-20T05:58:25;101637.34;;;15.11;100.00
70546;BME280;58098;51.680;5.134;2023-07-20T06:00:51;101636.53;;;15.11;100.00
70546;BME280;58098;51.680;5.134;2023-07-20T06:03:16;101624.53;;;15.18;100.00
70546;BME280;58098;51.680;5.134;2023-07-20T06:05:43;101621.06;;;15.17;100.00
70546;BME280;58098;51.680;5.134;2023-07-20T06:08:08;101620.22;;;15.17;100.00
70546;BME280;58098;51.680;5.134;2023-07-20T06:10:33;101632.50;;;15.37;100.00
70546;BME280;58098;51.680;5.134;2023-07-20T06:12:59;101631.88;;;15.45;100.00
70546;BME280;58098;51.680;5.134;2023-07-20T06:15:34;101637.56;;;15.50;100.00
70546;BME280;58098;51.680;5.134;2023-07-20T06:18:01;101658.34;;;15.62;100.00
70546;BME280;58098;51.680;5.134;2023-07-20T06:20:28;101656.75;;;15.71;100.00
70546;BME280;58098;51.680;5.134;2023-07-20T06:22:54;101652.31;;;15.71;100.00
70546;BME280;58098;51.680;5.134;2023-07-20T06:25:19;101655.94;;;15.80;100.00
70546;BME280;58098;51.680;5.134;2023-07-20T06:27:46;101663.44;;;15.94;100.00
70546;BME280;58098;51.680;5.134;2023-07-20T06:30:11;101653.47;;;15.98;100.00
70546;BME280;58098;51.680;5.134;2023-07-20T06:32:38;101664.97;;;16.06;100.00
70546;BME280;58098;51.680;5.134;2023-07-20T06:35:04;101652.41;;;16.10;100.00
70546;BME280;58098;51.680;5.134;2023-07-20T06:37:29;101646.72;;;16.24;100.00
70546;BME280;58098;51.680;5.134;2023-07-20T06:39:54;101658.38;;;16.31;100.00
70546;BME280;58098;51.680;5.134;2023-07-20T06:42:20;101643.28;;;16.33;100.00
70546;BME280;58098;51.680;5.134;2023-07-20T06:44:45;101639.50;;;16.35;100.00
70546;BME280;58098;51.680;5.134;2023-07-20T06:47:10;101645.50;;;16.47;100.00
70546;BME280;58098;51.680;5.134;2023-07-20T06:49:36;101644.94;;;16.53;100.00
70546;BME280;58098;51.680;5.134;2023-07-20T06:52:01;101644.13;;;16.72;100.00
70546;BME280;58098;51.680;5.134;2023-07-20T06:54:26;101638.41;;;16.86;100.00
70546;BME280;58098;51.680;5.134;2023-07-20T06:56:52;101643.22;;;17.00;100.00
70546;BME280;58098;51.680;5.134;2023-07-20T06:59:18;101641.00;;;17.05;100.00
70546;BME280;58098;51.680;5.134;2023-07-20T07:01:43;101648.19;;;17.12;100.00
70546;BME280;58098;51.680;5.134;2023-07-20T07:04:08;101645.66;;;17.11;100.00
70546;BME280;58098;51.680;5.134;2023-07-20T07:06:34;101647.81;;;16.98;100.00
70546;BME280;58098;51.680;5.134;2023-07-20T07:09:02;101639.94;;;16.88;100.00
70546;BME280;58098;51.680;5.134;2023-07-20T07:11:28;101657.00;;;16.75;100.00
70546;BME280;58098;51.680;5.134;2023-07-20T07:13:54;101651.19;;;16.62;100.00
70546;BME280;58098;51.680;5.134;2023-07-20T07:16:19;101655.63;;;16.61;100.00
70546;BME280;58098;51.680;5.134;2023-07-20T07:18:45;101660.47;;;16.66;100.00
70546;BME280;58098;51.680;5.134;2023-07-20T07:21:11;101660.63;;;16.55;100.00
70546;BME280;58098;51.680;5.134;2023-07-20T07:23:38;101648.00;;;16.68;100.00
70546;BME280;58098;51.680;5.134;2023-07-20T07:26:03;101658.53;;;16.68;100.00
70546;BME280;58098;51.680;5.134;2023-07-20T07:28:29;101664.63;;;16.78;100.00
70546;BME280;58098;51.680;5.134;2023-07-20T07:30:55;101666.31;;;16.79;100.00
70546;BME280;58098;51.680;5.134;2023-07-20T07:33:22;101656.28;;;16.92;100.00
70546;BME280;58098;51.680;5.134;2023-07-20T07:35:49;101656.66;;;17.06;100.00
70546;BME280;58098;51.680;5.134;2023-07-20T07:38:15;101652.63;;;17.12;100.00
70546;BME280;58098;51.680;5.134;2023-07-20T07:40:41;101661.44;;;17.40;100.00
70546;BME280;58098;51.680;5.134;2023-07-20T07:43:07;101653.75;;;17.46;100.00
70546;BME280;58098;51.680;5.134;2023-07-20T07:45:34;101668.66;;;17.74;100.00
70546;BME280;58098;51.680;5.134;2023-07-20T07:48:02;101680.47;;;17.98;100.00
70546;BME280;58098;51.680;5.134;2023-07-20T07:50:27;101674.69;;;18.12;100.00
70546;BME280;58098;51.680;5.134;2023-07-20T07:52:53;101671.22;;;18.11;100.00
70546;BME280;58098;51.680;5.134;2023-07-20T07:55:19;101662.97;;;17.97;100.00
70546;BME280;58098;51.680;5.134;2023-07-20T07:57:44;101674.13;;;18.08;100.00
70546;BME280;58098;51.680;5.134;2023-07-20T08:00:10;101688.88;;;18.11;100.00
70546;BME280;58098;51.680;5.134;2023-07-20T08:02:40;101684.88;;;18.07;100.00
70546;BME280;58098;51.680;5.134;2023-07-20T08:05:05;101678.41;;;17.92;100.00
70546;BME280;58098;51.680;5.134;2023-07-20T08:07:31;101681.31;;;18.16;100.00
70546;BME280;58098;51.680;5.134;2023-07-20T08:09:56;101689.50;;;18.40;100.00
70546;BME280;58098;51.680;5.134;2023-07-20T08:12:21;101684.16;;;18.67;100.00
70546;BME280;58098;51.680;5.134;2023-07-20T08:14:47;101683.25;;;18.76;100.00
70546;BME280;58098;51.680;5.134;2023-07-20T08:17:13;101690.31;;;19.37;100.00
70546;BME280;58098;51.680;5.134;2023-07-20T08:19:39;101687.34;;;19.73;100.00
70546;BME280;58098;51.680;5.134;2023-07-20T08:22:06;101696.41;;;20.05;100.00
70546;BME280;58098;51.680;5.134;2023-07-20T08:24:32;101684.06;;;20.46;100.00
70546;BME280;58098;51.680;5.134;2023-07-20T08:26:57;101684.75;;;20.72;100.00
70546;BME280;58098;51.680;5.134;2023-07-20T08:29:23;101692.38;;;20.75;100.00
70546;BME280;58098;51.680;5.134;2023-07-20T08:31:49;101698.34;;;20.61;100.00
70546;BME280;58098;51.680;5.134;2023-07-20T08:34:14;101691.03;;;20.55;100.00
70546;BME280;58098;51.680;5.134;2023-07-20T08:36:40;101684.91;;;20.62;100.00
70546;BME280;58098;51.680;5.134;2023-07-20T08:39:05;101683.06;;;21.03;100.00
70546;BME280;58098;51.680;5.134;2023-07-20T08:41:30;101685.09;;;21.09;100.00
70546;BME280;58098;51.680;5.134;2023-07-20T08:43:56;101688.03;;;20.98;100.00
70546;BME280;58098;51.680;5.134;2023-07-20T08:46:24;101693.19;;;21.16;100.00
70546;BME280;58098;51.680;5.134;2023-07-20T08:48:52;101687.69;;;21.25;100.00
70546;BME280;58098;51.680;5.134;2023-07-20T08:51:17;101694.16;;;21.23;100.00
70546;BME280;58098;51.680;5.134;2023-07-20T08:53:45;101680.34;;;21.43;100.00
70546;BME280;58098;51.680;5.134;2023-07-20T08:56:11;101676.09;;;22.12;100.00
70546;BME280;58098;51.680;5.134;2023-07-20T08:58:39;101681.41;;;22.57;100.00
70546;BME280;58098;51.680;5.134;2023-07-20T09:01:04;101678.97;;;23.08;100.00
70546;BME280;58098;51.680;5.134;2023-07-20T09:03:30;101684.91;;;22.95;100.00
70546;BME280;58098;51.680;5.134;2023-07-20T09:05:55;101673.75;;;22.62;100.00
70546;BME280;58098;51.680;5.134;2023-07-20T09:08:20;101669.75;;;22.35;100.00
70546;BME280;58098;51.680;5.134;2023-07-20T09:10:46;101669.50;;;22.22;100.00
70546;BME280;58098;51.680;5.134;2023-07-20T09:13:15;101671.00;;;22.25;100.00
70546;BME280;58098;51.680;5.134;2023-07-20T09:15:48;101686.78;;;21.96;100.00
70546;BME280;58098;51.680;5.134;2023-07-20T09:18:28;101673.47;;;22.04;100.00
70546;BME280;58098;51.680;5.134;2023-07-20T09:21:04;101688.19;;;22.14;100.00
70546;BME280;58098;51.680;5.134;2023-07-20T09:23:35;101677.34;;;22.24;100.00
70546;BME280;58098;51.680;5.134;2023-07-20T09:26:04;101662.72;;;22.20;100.00
70546;BME280;58098;51.680;5.134;2023-07-20T09:28:41;101672.56;;;22.65;100.00
70546;BME280;58098;51.680;5.134;2023-07-20T09:31:16;101686.06;;;23.30;100.00
70546;BME280;58098;51.680;5.134;2023-07-20T09:33:42;101673.47;;;22.94;100.00
70546;BME280;58098;51.680;5.134;2023-07-20T09:36:09;101676.47;;;22.31;100.00
70546;BME280;58098;51.680;5.134;2023-07-20T09:38:37;101664.16;;;22.53;100.00
70546;BME280;58098;51.680;5.134;2023-07-20T09:41:02;101663.09;;;22.99;100.00
70546;BME280;58098;51.680;5.134;2023-07-20T09:43:30;101664.97;;;23.57;100.00
70546;BME280;58098;51.680;5.134;2023-07-20T09:45:58;101660.53;;;23.79;100.00
70546;BME280;58098;51.680;5.134;2023-07-20T09:48:24;101661.81;;;23.69;100.00
70546;BME280;58098;51.680;5.134;2023-07-20T09:50:51;101663.00;;;23.08;100.00
70546;BME280;58098;51.680;5.134;2023-07-20T09:53:18;101672.28;;;22.97;100.00
70546;BME280;58098;51.680;5.134;2023-07-20T09:55:47;101650.50;;;22.93;100.00
70546;BME280;58098;51.680;5.134;2023-07-20T09:58:13;101653.72;;;23.04;100.00
70546;BME280;58098;51.680;5.134;2023-07-20T10:00:39;101641.78;;;22.99;100.00
70546;BME280;58098;51.680;5.134;2023-07-20T10:03:06;101659.44;;;23.15;100.00
70546;BME280;58098;51.680;5.134;2023-07-20T10:05:40;101656.47;;;23.25;100.00
70546;BME280;58098;51.680;5.134;2023-07-20T10:08:11;101650.84;;;23.78;100.00
70546;BME280;58098;51.680;5.134;2023-07-20T10:10:38;101649.88;;;23.64;100.00
70546;BME280;58098;51.680;5.134;2023-07-20T10:13:06;101665.13;;;23.71;100.00
70546;BME280;58098;51.680;5.134;2023-07-20T10:15:43;101663.19;;;23.79;100.00
70546;BME280;58098;51.680;5.134;2023-07-20T10:18:27;101645.16;;;23.81;100.00
70546;BME280;58098;51.680;5.134;2023-07-20T10:20:54;101656.59;;;23.75;100.00
70546;BME280;58098;51.680;5.134;2023-07-20T10:23:21;101652.38;;;23.51;100.00
70546;BME280;58098;51.680;5.134;2023-07-20T10:25:47;101652.94;;;23.47;100.00
70546;BME280;58098;51.680;5.134;2023-07-20T10:28:13;101661.00;;;23.39;100.00
70546;BME280;58098;51.680;5.134;2023-07-20T10:30:39;101657.91;;;24.36;100.00
70546;BME280;58098;51.680;5.134;2023-07-20T10:33:05;101653.63;;;24.42;100.00
70546;BME280;58098;51.680;5.134;2023-07-20T10:35:54;101653.50;;;24.50;100.00
70546;BME280;58098;51.680;5.134;2023-07-20T10:38:20;101650.03;;;24.56;100.00
70546;BME280;58098;51.680;5.134;2023-07-20T10:40:55;101644.56;;;24.85;100.00
70546;BME280;58098;51.680;5.134;2023-07-20T10:43:21;101645.91;;;24.53;100.00
70546;BME280;58098;51.680;5.134;2023-07-20T10:45:52;101652.53;;;24.78;100.00
70546;BME280;58098;51.680;5.134;2023-07-20T10:48:20;101644.56;;;24.64;100.00
70546;BME280;58098;51.680;5.134;2023-07-20T10:51:08;101636.28;;;23.95;100.00
70546;BME280;58098;51.680;5.134;2023-07-20T10:53:32;101633.44;;;23.61;100.00
70546;BME280;58098;51.680;5.134;2023-07-20T10:56:13;101631.53;;;23.55;100.00
70546;BME280;58098;51.680;5.134;2023-07-20T10:58:40;101634.00;;;23.42;100.00
70546;BME280;58098;51.680;5.134;2023-07-20T11:01:06;101623.81;;;23.45;100.00
70546;BME280;58098;51.680;5.134;2023-07-20T11:03:38;101620.09;;;23.61;100.00
70546;BME280;58098;51.680;5.134;2023-07-20T11:06:37;101636.47;;;24.51;100.00
70546;BME280;58098;51.680;5.134;2023-07-20T11:09:08;101637.66;;;24.97;100.00
70546;BME280;58098;51.680;5.134;2023-07-20T11:11:39;101627.31;;;24.87;100.00
70546;BME280;58098;51.680;5.134;2023-07-20T11:14:06;101625.44;;;25.16;100.00
70546;BME280;58098;51.680;5.134;2023-07-20T11:16:43;101619.72;;;25.60;100.00
70546;BME280;58098;51.680;5.134;2023-07-20T11:21:45;101604.34;;;25.34;100.00
70546;BME280;58098;51.680;5.134;2023-07-20T11:24:11;101609.00;;;26.20;100.00
70546;BME280;58098;51.680;5.134;2023-07-20T11:26:46;101609.38;;;26.04;100.00
70546;BME280;58098;51.680;5.134;2023-07-20T11:29:12;101611.63;;;25.06;100.00
70546;BME280;58098;51.680;5.134;2023-07-20T11:31:42;101609.63;;;24.59;100.00
70546;BME280;58098;51.680;5.134;2023-07-20T11:34:10;101612.44;;;24.29;100.00
70546;BME280;58098;51.680;5.134;2023-07-20T11:36:36;101612.28;;;24.59;100.00
70546;BME280;58098;51.680;5.134;2023-07-20T11:39:02;101595.81;;;25.04;100.00
70546;BME280;58098;51.680;5.134;2023-07-20T11:41:29;101597.28;;;25.61;100.00
70546;BME280;58098;51.680;5.134;2023-07-20T11:43:55;101604.69;;;26.45;100.00
70546;BME280;58098;51.680;5.134;2023-07-20T11:46:21;101602.63;;;27.57;100.00
70546;BME280;58098;51.680;5.134;2023-07-20T11:48:46;101596.16;;;28.34;100.00
70546;BME280;58098;51.680;5.134;2023-07-20T11:51:17;101599.66;;;29.38;100.00
70546;BME280;58098;51.680;5.134;2023-07-20T11:53:44;101581.31;;;29.65;100.00
70546;BME280;58098;51.680;5.134;2023-07-20T11:56:11;101583.25;;;30.17;100.00
70546;BME280;58098;51.680;5.134;2023-07-20T11:58:42;101585.88;;;30.35;100.00
70546;BME280;58098;51.680;5.134;2023-07-20T12:01:08;101583.31;;;29.99;92.91
70546;BME280;58098;51.680;5.134;2023-07-20T12:03:34;101576.00;;;30.29;85.81
70546;BME280;58098;51.680;5.134;2023-07-20T12:06:06;101579.66;;;29.52;92.04
70546;BME280;58098;51.680;5.134;2023-07-20T12:08:32;101584.28;;;28.91;100.00
70546;BME280;58098;51.680;5.134;2023-07-20T12:10:58;101581.03;;;28.14;100.00
70546;BME280;58098;51.680;5.134;2023-07-20T12:13:23;101584.16;;;27.23;100.00
70546;BME280;58098;51.680;5.134;2023-07-20T12:15:53;101571.09;;;26.89;99.22
70546;BME280;58098;51.680;5.134;2023-07-20T12:18:22;101572.38;;;26.40;100.00
70546;BME280;58098;51.680;5.134;2023-07-20T12:20:48;101572.22;;;25.62;100.00
70546;BME280;58098;51.680;5.134;2023-07-20T12:23:23;101571.31;;;24.73;100.00
70546;BME280;58098;51.680;5.134;2023-07-20T12:25:49;101577.06;;;24.70;100.00
70546;BME280;58098;51.680;5.134;2023-07-20T12:28:17;101586.38;;;24.53;100.00
70546;BME280;58098;51.680;5.134;2023-07-20T12:30:44;101590.06;;;24.52;100.00
70546;BME280;58098;51.680;5.134;2023-07-20T12:33:09;101591.19;;;24.36;100.00
70546;BME280;58098;51.680;5.134;2023-07-20T12:35:35;101587.19;;;24.25;100.00
70546;BME280;58098;51.680;5.134;2023-07-20T12:38:00;101591.22;;;24.43;100.00
70546;BME280;58098;51.680;5.134;2023-07-20T12:40:26;101586.97;;;24.27;100.00
70546;BME280;58098;51.680;5.134;2023-07-20T12:42:52;101597.94;;;24.39;100.00
70546;BME280;58098;51.680;5.134;2023-07-20T12:45:17;101590.94;;;24.10;100.00
70546;BME280;58098;51.680;5.134;2023-07-20T12:47:43;101588.16;;;23.82;100.00
70546;BME280;58098;51.680;5.134;2023-07-20T12:50:12;101590.94;;;23.38;100.00